sensor_id;sensor_type;location;lat;lon;timestamp;pressure;altitude;pressure_sealevel;temperature;humidity
56811;BME280;42691;47.234;27.494;2022-07-24T00:00:05;99427.22;;;27.89;75.70
56811;BME280;42691;47.234;27.494;2022-07-24T00:02:31;99424.00;;;27.79;76.71
56811;BME280;42691;47.234;27.494;2022-07-24T00:04:57;99414.53;;;27.77;76.59
56811;BME280;42691;47.234;27.494;2022-07-24T00:07:23;99406.19;;;27.65;77.12
56811;BME280;42691;47.234;27.494;2022-07-24T00:09:49;99400.22;;;27.63;76.92
56811;BME280;42691;47.234;27.494;2022-07-24T00:12:14;99410.78;;;27.71;77.13
56811;BME280;42691;47.234;27.494;2022-07-24T00:14:40;99410.00;;;27.77;77.03
56811;BME280;42691;47.234;27.494;2022-07-24T00:17:05;99417.00;;;27.78;77.29
56811;BME280;42691;47.234;27.494;2022-07-24T00:19:31;99409.75;;;27.72;77.00
56811;BME280;42691;47.234;27.494;2022-07-24T00:21:56;99404.16;;;27.67;77.24
56811;BME280;42691;47.234;27.494;2022-07-24T00:24:25;99392.31;;;27.55;77.80
56811;BME280;42691;47.234;27.494;2022-07-24T00:26:51;99396.72;;;27.62;77.79
56811;BME280;42691;47.234;27.494;2022-07-24T00:29:16;99398.03;;;27.52;77.20
56811;BME280;42691;47.234;27.494;2022-07-24T00:31:42;99386.03;;;27.48;76.76
56811;BME280;42691;47.234;27.494;2022-07-24T00:34:08;99391.88;;;27.36;77.26
56811;BME280;42691;47.234;27.494;2022-07-24T00:36:33;99395.38;;;27.37;77.20
56811;BME280;42691;47.234;27.494;2022-07-24T00:38:59;99393.78;;;27.21;77.41
56811;BME280;42691;47.234;27.494;2022-07-24T00:41:25;99385.63;;;27.29;77.88
56811;BME280;42691;47.234;27.494;2022-07-24T00:44:10;99382.63;;;27.18;78.35
56811;BME280;42691;47.234;27.494;2022-07-24T00:46:38;99381.06;;;27.23;78.14
56811;BME280;42691;47.234;27.494;2022-07-24T00:49:06;99388.44;;;27.21;77.99
56811;BME280;42691;47.234;27.494;2022-07-24T00:51:33;99375.72;;;27.23;77.58
56811;BME280;42691;47.234;27.494;2022-07-24T00:54:03;99379.41;;;27.22;77.84
56811;BME280;42691;47.234;27.494;2022-07-24T00:56:29;99378.84;;;27.12;78.19
56811;BME280;42691;47.234;27.494;2022-07-24T00:58:54;99369.09;;;27.19;79.03
56811;BME280;42691;47.234;27.494;2022-07-24T01:01:20;99366.50;;;27.26;77.88
56811;BME280;42691;47.234;27.494;2022-07-24T01:03:46;99362.75;;;27.20;82.02
56811;BME280;42691;47.234;27.494;2022-07-24T01:06:12;99367.16;;;27.13;86.39
56811;BME280;42691;47.234;27.494;2022-07-24T01:08:38;99361.28;;;27.18;85.05
56811;BME280;42691;47.234;27.494;2022-07-24T01:11:04;99360.06;;;27.20;83.93
56811;BME280;42691;47.234;27.494;2022-07-24T01:13:30;99353.53;;;27.23;82.00
56811;BME280;42691;47.234;27.494;2022-07-24T01:15:57;99350.16;;;27.14;80.57
56811;BME280;42691;47.234;27.494;2022-07-24T01:18:22;99340.56;;;27.05;80.69
56811;BME280;42691;47.234;27.494;2022-07-24T01:20:48;99334.41;;;27.04;80.67
56811;BME280;42691;47.234;27.494;2022-07-24T01:23:14;99331.63;;;26.98;80.97
56811;BME280;42691;47.234;27.494;2022-07-24T01:25:41;99335.59;;;27.02;80.56
56811;BME280;42691;47.234;27.494;2022-07-24T01:28:07;99332.66;;;26.97;80.98
56811;BME280;42691;47.234;27.494;2022-07-24T01:30:33;99328.69;;;26.93;80.76
56811;BME280;42691;47.234;27.494;2022-07-24T01:32:59;99331.00;;;26.96;80.38
56811;BME280;42691;47.234;27.494;2022-07-24T01:35:24;99325.84;;;26.94;80.68
56811;BME280;42691;47.234;27.494;2022-07-24T01:37:51;99319.41;;;26.89;80.78
56811;BME280;42691;47.234;27.494;2022-07-24T01:40:17;99311.16;;;26.84;81.34
56811;BME280;42691;47.234;27.494;2022-07-24T01:42:42;99312.44;;;26.88;81.55
56811;BME280;42691;47.234;27.494;2022-07-24T01:45:08;99318.22;;;26.91;81.20
56811;BME280;42691;47.234;27.494;2022-07-24T01:47:34;99310.88;;;26.78;81.41
56811;BME280;42691;47.234;27.494;2022-07-24T01:49:59;99311.91;;;26.77;82.17
56811;BME280;42691;47.234;27.494;2022-07-24T01:52:25;99311.91;;;26.77;82.28
56811;BME280;42691;47.234;27.494;2022-07-24T01:54:51;99312.16;;;26.83;83.09
56811;BME280;42691;47.234;27.494;2022-07-24T01:57:17;99314.00;;;26.82;84.84
56811;BME280;42691;47.234;27.494;2022-07-24T01:59:42;99314.72;;;26.76;82.91
56811;BME280;42691;47.234;27.494;2022-07-24T02:02:08;99319.72;;;26.79;82.90
56811;BME280;42691;47.234;27.494;2022-07-24T02:04:33;99301.22;;;26.77;82.65
56811;BME280;42691;47.234;27.494;2022-07-24T02:06:59;99311.06;;;26.77;82.34
56811;BME280;42691;47.234;27.494;2022-07-24T02:09:24;99319.91;;;26.77;82.89
56811;BME280;42691;47.234;27.494;2022-07-24T02:11:50;99324.94;;;26.72;82.94
56811;BME280;42691;47.234;27.494;2022-07-24T02:14:15;99331.94;;;26.73;86.42
56811;BME280;42691;47.234;27.494;2022-07-24T02:16:41;99328.81;;;26.70;87.32
56811;BME280;42691;47.234;27.494;2022-07-24T02:19:06;99330.66;;;26.69;87.02
56811;BME280;42691;47.234;27.494;2022-07-24T02:21:32;99324.78;;;26.59;85.05
56811;BME280;42691;47.234;27.494;2022-07-24T02:23:58;99324.03;;;26.65;84.76
56811;BME280;42691;47.234;27.494;2022-07-24T02:26:23;99314.84;;;26.53;85.05
56811;BME280;42691;47.234;27.494;2022-07-24T02:28:49;99306.41;;;26.50;85.49
56811;BME280;42691;47.234;27.494;2022-07-24T02:31:14;99294.34;;;26.54;84.86
56811;BME280;42691;47.234;27.494;2022-07-24T02:33:40;99316.78;;;26.44;84.92
56811;BME280;42691;47.234;27.494;2022-07-24T02:36:05;99313.72;;;26.33;85.31
56811;BME280;42691;47.234;27.494;2022-07-24T02:38:31;99318.22;;;26.32;85.37
56811;BME280;42691;47.234;27.494;2022-07-24T02:40:56;99319.41;;;26.30;85.79
56811;BME280;42691;47.234;27.494;2022-07-24T02:43:22;99317.94;;;26.12;86.20
56811;BME280;42691;47.234;27.494;2022-07-24T02:45:47;99320.78;;;26.11;86.96
56811;BME280;42691;47.234;27.494;2022-07-24T02:48:13;99332.56;;;26.16;86.97
56811;BME280;42691;47.234;27.494;2022-07-24T02:50:38;99333.56;;;26.15;87.52
56811;BME280;42691;47.234;27.494;2022-07-24T02:53:05;99335.50;;;26.07;88.36
56811;BME280;42691;47.234;27.494;2022-07-24T02:55:31;99339.81;;;26.08;88.43
56811;BME280;42691;47.234;27.494;2022-07-24T02:57:56;99339.44;;;26.11;88.26
56811;BME280;42691;47.234;27.494;2022-07-24T03:00:22;99342.22;;;26.17;87.78
56811;BME280;42691;47.234;27.494;2022-07-24T03:02:48;99347.72;;;26.16;87.92
56811;BME280;42691;47.234;27.494;2022-07-24T03:05:14;99347.53;;;26.17;88.25
56811;BME280;42691;47.234;27.494;2022-07-24T03:07:40;99343.31;;;26.23;88.26
56811;BME280;42691;47.234;27.494;2022-07-24T03:10:09;99340.91;;;26.13;88.31
56811;BME280;42691;47.234;27.494;2022-07-24T03:12:35;99338.34;;;26.05;90.04
56811;BME280;42691;47.234;27.494;2022-07-24T03:15:00;99316.78;;;25.92;91.63
56811;BME280;42691;47.234;27.494;2022-07-24T03:17:26;99342.13;;;26.11;90.98
56811;BME280;42691;47.234;27.494;2022-07-24T03:19:51;99351.59;;;26.13;91.33
56811;BME280;42691;47.234;27.494;2022-07-24T03:22:17;99347.91;;;26.14;92.47
56811;BME280;42691;47.234;27.494;2022-07-24T03:24:43;99348.63;;;26.08;94.09
56811;BME280;42691;47.234;27.494;2022-07-24T03:27:09;99357.56;;;26.15;93.13
56811;BME280;42691;47.234;27.494;2022-07-24T03:29:34;99362.78;;;26.09;95.80
56811;BME280;42691;47.234;27.494;2022-07-24T03:32:00;99356.19;;;26.05;100.00
56811;BME280;42691;47.234;27.494;2022-07-24T03:34:25;99356.34;;;26.03;100.00
56811;BME280;42691;47.234;27.494;2022-07-24T03:36:51;99348.53;;;26.02;100.00
56811;BME280;42691;47.234;27.494;2022-07-24T03:39:16;99352.09;;;25.94;100.00
56811;BME280;42691;47.234;27.494;2022-07-24T03:41:42;99343.91;;;25.96;100.00
56811;BME280;42691;47.234;27.494;2022-07-24T03:44:08;99350.34;;;26.01;100.00
56811;BME280;42691;47.234;27.494;2022-07-24T03:46:34;99368.31;;;26.07;100.00
56811;BME280;42691;47.234;27.494;2022-07-24T03:48:59;99373.00;;;26.05;100.00
56811;BME280;42691;47.234;27.494;2022-07-24T03:51:25;99375.28;;;26.08;100.00
56811;BME280;42691;47.234;27.494;2022-07-24T03:53:51;99368.03;;;26.02;100.00
56811;BME280;42691;47.234;27.494;2022-07-24T03:56:17;99374.34;;;26.01;100.00
56811;BME280;42691;47.234;27.494;2022-07-24T03:58:43;99394.13;;;26.07;100.00
56811;BME280;42691;47.234;27.494;2022-07-24T04:01:08;99383.47;;;26.07;100.00
56811;BME280;42691;47.234;27.494;2022-07-24T04:03:35;99397.19;;;26.18;100.00
56811;BME280;42691;47.234;27.494;2022-07-24T04:06:01;99393.41;;;26.13;100.00
56811;BME280;42691;47.234;27.494;2022-07-24T04:08:27;99397.19;;;26.18;98.87
56811;BME280;42691;47.234;27.494;2022-07-24T04:10:52;99388.34;;;26.41;96.04
56811;BME280;42691;47.234;27.494;2022-07-24T04:13:29;99403.72;;;26.83;93.69
56811;BME280;42691;47.234;27.494;2022-07-24T04:15:55;99416.72;;;27.16;96.43
56811;BME280;42691;47.234;27.494;2022-07-24T04:18:22;99409.63;;;27.44;98.62
56811;BME280;42691;47.234;27.494;2022-07-24T04:20:48;99399.94;;;27.58;92.41
56811;BME280;42691;47.234;27.494;2022-07-24T04:23:13;99396.84;;;27.76;89.46
56811;BME280;42691;47.234;27.494;2022-07-24T04:25:39;99390.56;;;27.62;87.57
56811;BME280;42691;47.234;27.494;2022-07-24T04:28:05;99384.06;;;27.71;88.92
56811;BME280;42691;47.234;27.494;2022-07-24T04:30:31;99364.00;;;27.82;88.10
56811;BME280;42691;47.234;27.494;2022-07-24T04:32:57;99379.94;;;28.18;87.94
56811;BME280;42691;47.234;27.494;2022-07-24T04:35:23;99385.53;;;28.51;87.68
56811;BME280;42691;47.234;27.494;2022-07-24T04:37:50;99387.22;;;28.58;85.50
56811;BME280;42691;47.234;27.494;2022-07-24T04:40:15;99397.31;;;28.84;87.60
56811;BME280;42691;47.234;27.494;2022-07-24T04:42:41;99392.19;;;28.96;86.85
56811;BME280;42691;47.234;27.494;2022-07-24T04:45:07;99387.47;;;28.98;86.31
56811;BME280;42691;47.234;27.494;2022-07-24T04:47:37;99384.13;;;28.55;88.75
56811;BME280;42691;47.234;27.494;2022-07-24T04:50:04;99376.06;;;28.48;90.92
56811;BME280;42691;47.234;27.494;2022-07-24T04:52:30;99379.69;;;28.69;90.69
56811;BME280;42691;47.234;27.494;2022-07-24T04:54:55;99372.53;;;29.17;89.17
56811;BME280;42691;47.234;27.494;2022-07-24T04:57:21;99374.09;;;29.46;87.51
56811;BME280;42691;47.234;27.494;2022-07-24T04:59:46;99377.22;;;29.76;88.13
56811;BME280;42691;47.234;27.494;2022-07-24T05:02:12;99388.59;;;30.04;88.30
56811;BME280;42691;47.234;27.494;2022-07-24T05:04:37;99396.03;;;30.35;86.15
56811;BME280;42691;47.234;27.494;2022-07-24T05:07:03;99405.94;;;30.55;85.31
56811;BME280;42691;47.234;27.494;2022-07-24T05:09:29;99402.97;;;30.89;84.10
56811;BME280;42691;47.234;27.494;2022-07-24T05:11:54;99404.16;;;31.06;84.96
56811;BME280;42691;47.234;27.494;2022-07-24T05:14:20;99398.00;;;30.93;83.22
56811;BME280;42691;47.234;27.494;2022-07-24T05:16:45;99410.31;;;31.27;80.73
56811;BME280;42691;47.234;27.494;2022-07-24T05:19:11;99409.34;;;31.46;80.06
56811;BME280;42691;47.234;27.494;2022-07-24T05:21:37;99409.66;;;31.69;78.06
56811;BME280;42691;47.234;27.494;2022-07-24T05:24:03;99398.03;;;31.76;77.95
56811;BME280;42691;47.234;27.494;2022-07-24T05:26:29;99408.25;;;31.92;76.30
56811;BME280;42691;47.234;27.494;2022-07-24T05:28:57;99414.84;;;31.96;75.14
56811;BME280;42691;47.234;27.494;2022-07-24T05:31:23;99404.53;;;32.18;71.48
56811;BME280;42691;47.234;27.494;2022-07-24T05:33:49;99402.88;;;31.92;73.55
56811;BME280;42691;47.234;27.494;2022-07-24T05:36:15;99406.75;;;32.27;76.57
56811;BME280;42691;47.234;27.494;2022-07-24T05:38:40;99401.72;;;32.56;75.02
56811;BME280;42691;47.234;27.494;2022-07-24T05:41:06;99399.78;;;32.45;74.88
56811;BME280;42691;47.234;27.494;2022-07-24T05:43:31;99388.03;;;32.39;78.37
56811;BME280;42691;47.234;27.494;2022-07-24T05:45:57;99396.06;;;32.64;79.67
56811;BME280;42691;47.234;27.494;2022-07-24T05:48:22;99398.78;;;33.01;83.00
56811;BME280;42691;47.234;27.494;2022-07-24T05:50:47;99399.63;;;32.83;89.28
56811;BME280;42691;47.234;27.494;2022-07-24T05:53:13;99404.03;;;32.95;93.87
56811;BME280;42691;47.234;27.494;2022-07-24T05:55:38;99401.19;;;33.09;91.70
56811;BME280;42691;47.234;27.494;2022-07-24T05:58:04;99395.50;;;32.80;94.38
56811;BME280;42691;47.234;27.494;2022-07-24T06:00:29;99385.06;;;32.47;95.42
56811;BME280;42691;47.234;27.494;2022-07-24T06:02:55;99381.59;;;32.40;98.54
56811;BME280;42691;47.234;27.494;2022-07-24T06:05:20;99375.94;;;32.48;97.36
56811;BME280;42691;47.234;27.494;2022-07-24T06:07:46;99376.75;;;32.49;94.32
56811;BME280;42691;47.234;27.494;2022-07-24T06:10:12;99368.63;;;32.06;95.70
56811;BME280;42691;47.234;27.494;2022-07-24T06:12:38;99360.28;;;31.89;95.48
56811;BME280;42691;47.234;27.494;2022-07-24T06:15:04;99368.75;;;32.42;95.10
56811;BME280;42691;47.234;27.494;2022-07-24T06:17:29;99375.78;;;32.61;93.06
56811;BME280;42691;47.234;27.494;2022-07-24T06:19:55;99376.72;;;32.92;91.02
56811;BME280;42691;47.234;27.494;2022-07-24T06:22:20;99372.06;;;32.99;88.41
56811;BME280;42691;47.234;27.494;2022-07-24T06:24:45;99370.03;;;32.94;88.60
56811;BME280;42691;47.234;27.494;2022-07-24T06:27:11;99376.78;;;32.85;85.73
56811;BME280;42691;47.234;27.494;2022-07-24T06:29:36;99372.84;;;32.63;87.72
56811;BME280;42691;47.234;27.494;2022-07-24T06:32:02;99375.56;;;32.45;90.38
56811;BME280;42691;47.234;27.494;2022-07-24T06:34:28;99363.13;;;32.44;93.43
56811;BME280;42691;47.234;27.494;2022-07-24T06:36:53;99365.69;;;32.75;92.10
56811;BME280;42691;47.234;27.494;2022-07-24T06:39:19;99364.69;;;32.70;89.70
56811;BME280;42691;47.234;27.494;2022-07-24T06:41:44;99355.50;;;32.59;90.22
56811;BME280;42691;47.234;27.494;2022-07-24T06:44:10;99362.63;;;32.90;90.32
56811;BME280;42691;47.234;27.494;2022-07-24T06:46:37;99361.78;;;33.08;90.08
56811;BME280;42691;47.234;27.494;2022-07-24T06:49:03;99355.53;;;32.95;89.67
56811;BME280;42691;47.234;27.494;2022-07-24T06:51:28;99344.47;;;32.85;90.36
56811;BME280;42691;47.234;27.494;2022-07-24T06:53:54;99336.66;;;32.77;91.42
56811;BME280;42691;47.234;27.494;2022-07-24T06:56:19;99342.63;;;32.98;93.05
56811;BME280;42691;47.234;27.494;2022-07-24T06:58:45;99344.38;;;32.55;93.27
56811;BME280;42691;47.234;27.494;2022-07-24T07:01:11;99357.09;;;32.23;94.48
56811;BME280;42691;47.234;27.494;2022-07-24T07:03:36;99370.81;;;32.15;98.79
56811;BME280;42691;47.234;27.494;2022-07-24T07:06:02;99359.50;;;31.82;100.00
56811;BME280;42691;47.234;27.494;2022-07-24T07:08:28;99360.69;;;31.61;100.00
56811;BME280;42691;47.234;27.494;2022-07-24T07:10:53;99372.16;;;31.43;100.00
56811;BME280;42691;47.234;27.494;2022-07-24T07:13:19;99368.94;;;31.28;100.00
56811;BME280;42691;47.234;27.494;2022-07-24T07:15:44;99377.66;;;31.17;100.00
56811;BME280;42691;47.234;27.494;2022-07-24T07:18:10;99372.09;;;31.11;100.00
56811;BME280;42691;47.234;27.494;2022-07-24T07:20:35;99381.06;;;30.92;100.00
56811;BME280;42691;47.234;27.494;2022-07-24T07:23:00;99387.06;;;30.81;100.00
56811;BME280;42691;47.234;27.494;2022-07-24T07:25:26;99386.03;;;30.89;100.00
56811;BME280;42691;47.234;27.494;2022-07-24T07:27:51;99388.72;;;30.82;100.00
56811;BME280;42691;47.234;27.494;2022-07-24T07:30:17;99395.13;;;30.81;100.00
56811;BME280;42691;47.234;27.494;2022-07-24T07:32:42;99399.28;;;30.77;100.00
56811;BME280;42691;47.234;27.494;2022-07-24T07:35:08;99401.41;;;30.62;100.00
56811;BME280;42691;47.234;27.494;2022-07-24T07:37:34;99406.72;;;30.75;100.00
56811;BME280;42691;47.234;27.494;2022-07-24T07:39:59;99406.31;;;30.71;100.00
56811;BME280;42691;47.234;27.494;2022-07-24T07:42:25;99407.56;;;30.56;100.00
56811;BME280;42691;47.234;27.494;2022-07-24T07:44:50;99410.44;;;30.47;100.00
56811;BME280;42691;47.234;27.494;2022-07-24T07:47:16;99423.06;;;30.34;100.00
56811;BME280;42691;47.234;27.494;2022-07-24T07:49:41;99437.53;;;30.20;100.00
56811;BME280;42691;47.234;27.494;2022-07-24T07:52:07;99430.47;;;29.92;100.00
56811;BME280;42691;47.234;27.494;2022-07-24T07:54:32;99423.44;;;29.84;100.00
56811;BME280;42691;47.234;27.494;2022-07-24T07:56:58;99419.06;;;29.70;100.00
56811;BME280;42691;47.234;27.494;2022-07-24T07:59:23;99414.91;;;29.54;100.00
56811;BME280;42691;47.234;27.494;2022-07-24T08:01:49;99423.94;;;29.40;100.00
56811;BME280;42691;47.234;27.494;2022-07-24T08:04:14;99420.13;;;29.21;100.00
56811;BME280;42691;47.234;27.494;2022-07-24T08:06:40;99421.34;;;29.12;100.00
56811;BME280;42691;47.234;27.494;2022-07-24T08:09:05;99424.59;;;29.01;100.00
56811;BME280;42691;47.234;27.494;2022-07-24T08:11:32;99420.38;;;28.85;100.00
56811;BME280;42691;47.234;27.494;2022-07-24T08:13:58;99430.16;;;28.72;100.00
56811;BME280;42691;47.234;27.494;2022-07-24T08:16:23;99459.94;;;28.90;100.00
56811;BME280;42691;47.234;27.494;2022-07-24T08:18:49;99466.72;;;28.86;100.00
56811;BME280;42691;47.234;27.494;2022-07-24T08:21:15;99458.38;;;28.74;100.00
56811;BME280;42691;47.234;27.494;2022-07-24T08:23:41;99448.16;;;28.56;100.00
56811;BME280;42691;47.234;27.494;2022-07-24T08:26:06;99449.81;;;28.57;100.00
56811;BME280;42691;47.234;27.494;2022-07-24T08:28:32;99460.91;;;28.54;100.00
56811;BME280;42691;47.234;27.494;2022-07-24T08:30:58;99465.38;;;28.47;100.00
56811;BME280;42691;47.234;27.494;2022-07-24T08:33:23;99461.22;;;28.38;100.00
56811;BME280;42691;47.234;27.494;2022-07-24T08:35:49;99444.88;;;28.12;100.00
56811;BME280;42691;47.234;27.494;2022-07-24T08:38:14;99447.38;;;28.13;100.00
56811;BME280;42691;47.234;27.494;2022-07-24T08:40:40;99446.94;;;28.10;100.00
56811;BME280;42691;47.234;27.494;2022-07-24T08:43:07;99442.34;;;28.03;100.00
56811;BME280;42691;47.234;27.494;2022-07-24T08:45:35;99439.69;;;28.03;100.00
56811;BME280;42691;47.234;27.494;2022-07-24T08:48:03;99446.53;;;28.13;100.00
56811;BME280;42691;47.234;27.494;2022-07-24T08:50:29;99428.75;;;27.98;100.00
56811;BME280;42691;47.234;27.494;2022-07-24T08:52:56;99450.47;;;28.17;100.00
56811;BME280;42691;47.234;27.494;2022-07-24T08:55:23;99455.19;;;28.29;100.00
56811;BME280;42691;47.234;27.494;2022-07-24T08:57:48;99447.03;;;28.44;100.00
56811;BME280;42691;47.234;27.494;2022-07-24T09:00:14;99459.97;;;28.62;100.00
56811;BME280;42691;47.234;27.494;2022-07-24T09:02:39;99463.94;;;28.73;100.00
56811;BME280;42691;47.234;27.494;2022-07-24T09:05:05;99480.34;;;28.91;100.00
56811;BME280;42691;47.234;27.494;2022-07-24T09:07:32;99482.00;;;28.92;100.00
56811;BME280;42691;47.234;27.494;2022-07-24T09:10:12;99487.25;;;29.07;100.00
56811;BME280;42691;47.234;27.494;2022-07-24T09:12:40;99486.19;;;29.01;100.00
56811;BME280;42691;47.234;27.494;2022-07-24T09:15:19;99488.47;;;28.76;100.00
56811;BME280;42691;47.234;27.494;2022-07-24T09:17:56;99492.13;;;28.69;100.00
56811;BME280;42691;47.234;27.494;2022-07-24T09:20:23;99505.63;;;28.60;100.00
56811;BME280;42691;47.234;27.494;2022-07-24T09:22:50;99504.50;;;28.48;100.00
56811;BME280;42691;47.234;27.494;2022-07-24T09:27:55;99507.97;;;28.42;100.00
56811;BME280;42691;47.234;27.494;2022-07-24T09:30:24;99504.50;;;28.48;100.00
56811;BME280;42691;47.234;27.494;2022-07-24T09:32:57;99505.00;;;28.58;100.00
56811;BME280;42691;47.234;27.494;2022-07-24T09:35:34;99494.78;;;28.69;100.00
56811;BME280;42691;47.234;27.494;2022-07-24T09:38:03;99489.88;;;28.72;100.00
56811;BME280;42691;47.234;27.494;2022-07-24T09:40:37;99484.88;;;28.90;100.00
56811;BME280;42691;47.234;27.494;2022-07-24T09:43:16;99479.59;;;28.76;100.00
56811;BME280;42691;47.234;27.494;2022-07-24T09:48:30;99488.25;;;28.78;100.00
56811;BME280;42691;47.234;27.494;2022-07-24T09:50:58;99486.75;;;28.97;100.00
56811;BME280;42691;47.234;27.494;2022-07-24T09:53:29;99485.63;;;29.12;100.00
56811;BME280;42691;47.234;27.494;2022-07-24T09:55:57;99491.22;;;29.17;100.00
56811;BME280;42691;47.234;27.494;2022-07-24T09:58:23;99483.88;;;28.98;100.00
56811;BME280;42691;47.234;27.494;2022-07-24T10:00:49;99491.44;;;29.22;100.00
56811;BME280;42691;47.234;27.494;2022-07-24T10:03:18;99495.72;;;29.45;100.00
56811;BME280;42691;47.234;27.494;2022-07-24T10:05:45;99486.38;;;29.41;100.00
56811;BME280;42691;47.234;27.494;2022-07-24T10:08:13;99479.56;;;29.38;100.00
56811;BME280;42691;47.234;27.494;2022-07-24T10:10:41;99477.53;;;29.40;100.00
56811;BME280;42691;47.234;27.494;2022-07-24T10:13:07;99455.69;;;29.43;100.00
56811;BME280;42691;47.234;27.494;2022-07-24T10:15:34;99478.59;;;29.46;100.00
56811;BME280;42691;47.234;27.494;2022-07-24T10:18:15;99460.47;;;29.48;100.00
56811;BME280;42691;47.234;27.494;2022-07-24T10:20:44;99460.22;;;29.43;100.00
56811;BME280;42691;47.234;27.494;2022-07-24T10:23:23;99454.09;;;29.49;100.00
56811;BME280;42691;47.234;27.494;2022-07-24T10:26:07;99440.50;;;29.57;100.00
56811;BME280;42691;47.234;27.494;2022-07-24T10:28:41;99451.69;;;29.87;100.00
56811;BME280;42691;47.234;27.494;2022-07-24T10:31:12;99454.59;;;29.99;100.00
56811;BME280;42691;47.234;27.494;2022-07-24T10:33:40;99445.94;;;29.97;100.00
56811;BME280;42691;47.234;27.494;2022-07-24T10:36:28;99444.72;;;30.06;100.00
56811;BME280;42691;47.234;27.494;2022-07-24T10:39:00;99434.44;;;30.16;100.00
56811;BME280;42691;47.234;27.494;2022-07-24T10:41:26;99422.66;;;30.30;100.00
56811;BME280;42691;47.234;27.494;2022-07-24T10:44:30;99430.69;;;30.76;100.00
56811;BME280;42691;47.234;27.494;2022-07-24T10:46:58;99428.59;;;30.78;100.00
56811;BME280;42691;47.234;27.494;2022-07-24T10:52:21;99443.72;;;30.33;100.00
56811;BME280;42691;47.234;27.494;2022-07-24T10:55:18;99440.41;;;30.31;100.00
56811;BME280;42691;47.234;27.494;2022-07-24T11:00:44;99438.31;;;30.46;100.00
56811;BME280;42691;47.234;27.494;2022-07-24T11:03:23;99442.06;;;30.59;100.00
56811;BME280;42691;47.234;27.494;2022-07-24T11:06:09;99437.94;;;30.69;100.00
56811;BME280;42691;47.234;27.494;2022-07-24T11:09:01;99436.25;;;30.75;100.00
56811;BME280;42691;47.234;27.494;2022-07-24T11:11:28;99427.41;;;30.61;100.00
56811;BME280;42691;47.234;27.494;2022-07-24T11:13:55;99429.84;;;30.76;100.00
56811;BME280;42691;47.234;27.494;2022-07-24T11:16:33;99423.22;;;30.78;100.00
56811;BME280;42691;47.234;27.494;2022-07-24T11:21:39;99413.31;;;30.79;100.00
56811;BME280;42691;47.234;27.494;2022-07-24T11:29:30;99398.59;;;31.01;100.00
56811;BME280;42691;47.234;27.494;2022-07-24T11:34:25;99396.72;;;31.02;100.00
56811;BME280;42691;47.234;27.494;2022-07-24T11:36:53;99395.97;;;30.88;100.00
56811;BME280;42691;47.234;27.494;2022-07-24T11:39:27;99391.59;;;30.94;100.00
56811;BME280;42691;47.234;27.494;2022-07-24T11:41:55;99383.06;;;31.03;100.00
56811;BME280;42691;47.234;27.494;2022-07-24T11:44:32;99381.25;;;30.97;100.00
56811;BME280;42691;47.234;27.494;2022-07-24T11:47:00;99383.69;;;31.05;100.00
56811;BME280;42691;47.234;27.494;2022-07-24T11:49:30;99379.09;;;31.26;100.00
56811;BME280;42691;47.234;27.494;2022-07-24T11:51:55;99362.81;;;31.07;100.00
56811;BME280;42691;47.234;27.494;2022-07-24T11:54:25;99371.66;;;31.15;100.00
56811;BME280;42691;47.234;27.494;2022-07-24T11:56:51;99368.34;;;31.26;100.00
56811;BME280;42691;47.234;27.494;2022-07-24T11:59:35;99352.56;;;30.91;100.00
56811;BME280;42691;47.234;27.494;2022-07-24T12:02:08;99368.13;;;31.21;100.00
56811;BME280;42691;47.234;27.494;2022-07-24T12:04:34;99365.88;;;31.18;100.00
56811;BME280;42691;47.234;27.494;2022-07-24T12:07:00;99366.16;;;30.96;100.00
56811;BME280;42691;47.234;27.494;2022-07-24T12:09:26;99366.16;;;30.96;100.00
56811;BME280;42691;47.234;27.494;2022-07-24T12:11:52;99361.16;;;31.06;100.00
56811;BME280;42691;47.234;27.494;2022-07-24T12:14:20;99356.22;;;31.03;100.00
56811;BME280;42691;47.234;27.494;2022-07-24T12:16:53;99343.22;;;31.00;100.00
56811;BME280;42691;47.234;27.494;2022-07-24T12:19:22;99351.84;;;31.16;100.00
56811;BME280;42691;47.234;27.494;2022-07-24T12:21:51;99349.16;;;31.16;100.00
56811;BME280;42691;47.234;27.494;2022-07-24T12:24:17;99357.03;;;31.04;100.00
56811;BME280;42691;47.234;27.494;2022-07-24T12:26:55;99353.41;;;30.85;100.00
56811;BME280;42691;47.234;27.494;2022-07-24T12:29:22;99353.34;;;30.98;100.00
56811;BME280;42691;47.234;27.494;2022-07-24T12:31:48;99351.66;;;31.04;100.00
56811;BME280;42691;47.234;27.494;2022-07-24T12:34:15;99350.09;;;30.83;100.00
56811;BME280;42691;47.234;27.494;2022-07-24T12:36:41;99341.81;;;30.91;100.00
56811;BME280;42691;47.234;27.494;2022-07-24T12:39:07;99344.25;;;30.99;100.00
56811;BME280;42691;47.234;27.494;2022-07-24T12:41:42;99339.63;;;30.68;100.00
56811;BME280;42691;47.234;27.494;2022-07-24T12:44:08;99334.38;;;30.93;100.00
56811;BME280;42691;47.234;27.494;2022-07-24T12:46:35;99323.09;;;31.23;100.00
56811;BME280;42691;47.234;27.494;2022-07-24T12:49:14;99316.38;;;31.38;100.00
56811;BME280;42691;47.234;27.494;2022-07-24T12:51:50;99327.56;;;31.35;100.00
56811;BME280;42691;47.234;27.494;2022-07-24T12:54:21;99324.22;;;31.40;100.00
56811;BME280;42691;47.234;27.494;2022-07-24T12:56:49;99330.06;;;31.30;100.00
56811;BME280;42691;47.234;27.494;2022-07-24T12:59:29;99332.94;;;31.35;100.00
56811;BME280;42691;47.234;27.494;2022-07-24T13:01:58;99339.72;;;31.38;100.00
56811;BME280;42691;47.234;27.494;2022-07-24T13:04:25;99322.16;;;31.35;100.00
56811;BME280;42691;47.234;27.494;2022-07-24T13:06:54;99331.06;;;31.36;100.00